sensor_id;sensor_type;location;lat;lon;timestamp;P1;durP1;ratioP1;P2;durP2;ratioP2
42586;SDS011;28216;53.362;-6.288;2022-10-16T00:01:33;3.30;;;1.08;;
42586;SDS011;28216;53.362;-6.288;2022-10-16T00:03:59;3.38;;;1.08;;
42586;SDS011;28216;53.362;-6.288;2022-10-16T00:06:26;3.25;;;1.20;;
42586;SDS011;28216;53.362;-6.288;2022-10-16T00:08:53;2.28;;;1.02;;
42586;SDS011;28216;53.362;-6.288;2022-10-16T00:11:23;2.47;;;1.20;;
42586;SDS011;28216;53.362;-6.288;2022-10-16T00:13:51;3.22;;;0.85;;
42586;SDS011;28216;53.362;-6.288;2022-10-16T00:16:19;3.47;;;1.00;;
42586;SDS011;28216;53.362;-6.288;2022-10-16T00:18:45;4.68;;;1.17;;
42586;SDS011;28216;53.362;-6.288;2022-10-16T00:21:15;1.95;;;1.10;;
42586;SDS011;28216;53.362;-6.288;2022-10-16T00:23:43;3.50;;;1.13;;
42586;SDS011;28216;53.362;-6.288;2022-10-16T00:26:10;2.95;;;0.75;;
42586;SDS011;28216;53.362;-6.288;2022-10-16T00:28:38;1.88;;;0.88;;
42586;SDS011;28216;53.362;-6.288;2022-10-16T00:31:05;2.38;;;1.05;;
42586;SDS011;28216;53.362;-6.288;2022-10-16T00:33:31;2.78;;;0.93;;
42586;SDS011;28216;53.362;-6.288;2022-10-16T00:36:00;3.10;;;0.68;;
42586;SDS011;28216;53.362;-6.288;2022-10-16T00:38:30;4.20;;;1.05;;
42586;SDS011;28216;53.362;-6.288;2022-10-16T00:40:55;4.22;;;0.90;;
42586;SDS011;28216;53.362;-6.288;2022-10-16T00:43:41;3.20;;;1.02;;
42586;SDS011;28216;53.362;-6.288;2022-10-16T00:46:54;2.75;;;0.80;;
42586;SDS011;28216;53.362;-6.288;2022-10-16T00:49:00;4.00;;;1.00;;
42586;SDS011;28216;53.362;-6.288;2022-10-16T00:54:16;2.78;;;1.00;;
42586;SDS011;28216;53.362;-6.288;2022-10-16T00:56:46;4.82;;;1.00;;
42586;SDS011;28216;53.362;-6.288;2022-10-16T00:59:15;3.72;;;1.02;;
42586;SDS011;28216;53.362;-6.288;2022-10-16T01:01:50;3.20;;;1.05;;
42586;SDS011;28216;53.362;-6.288;2022-10-16T01:04:16;2.83;;;0.85;;
42586;SDS011;28216;53.362;-6.288;2022-10-16T01:06:46;3.83;;;1.10;;
42586;SDS011;28216;53.362;-6.288;2022-10-16T01:09:23;2.97;;;0.98;;
42586;SDS011;28216;53.362;-6.288;2022-10-16T01:12:14;3.60;;;0.93;;
42586;SDS011;28216;53.362;-6.288;2022-10-16T01:14:48;3.33;;;1.00;;
42586;SDS011;28216;53.362;-6.288;2022-10-16T01:17:24;4.57;;;0.80;;
42586;SDS011;28216;53.362;-6.288;2022-10-16T01:20:07;2.90;;;0.82;;
42586;SDS011;28216;53.362;-6.288;2022-10-16T01:22:43;4.20;;;1.13;;
42586;SDS011;28216;53.362;-6.288;2022-10-16T01:25:23;4.22;;;0.98;;
42586;SDS011;28216;53.362;-6.288;2022-10-16T01:27:56;3.88;;;0.98;;
42586;SDS011;28216;53.362;-6.288;2022-10-16T01:30:25;3.88;;;1.15;;
42586;SDS011;28216;53.362;-6.288;2022-10-16T01:32:57;3.03;;;1.00;;
42586;SDS011;28216;53.362;-6.288;2022-10-16T01:35:25;3.80;;;1.20;;
42586;SDS011;28216;53.362;-6.288;2022-10-16T01:40:29;5.93;;;1.00;;
42586;SDS011;28216;53.362;-6.288;2022-10-16T01:43:00;5.75;;;1.20;;
42586;SDS011;28216;53.362;-6.288;2022-10-16T01:45:30;5.10;;;1.13;;
42586;SDS011;28216;53.362;-6.288;2022-10-16T01:47:58;3.28;;;0.90;;
42586;SDS011;28216;53.362;-6.288;2022-10-16T01:50:29;2.08;;;0.75;;
42586;SDS011;28216;53.362;-6.288;2022-10-16T01:52:58;4.45;;;1.00;;
42586;SDS011;28216;53.362;-6.288;2022-10-16T01:55:28;2.72;;;0.98;;
42586;SDS011;28216;53.362;-6.288;2022-10-16T01:57:56;3.78;;;0.90;;
42586;SDS011;28216;53.362;-6.288;2022-10-16T02:00:25;5.05;;;1.17;;
42586;SDS011;28216;53.362;-6.288;2022-10-16T02:02:52;2.78;;;0.95;;
42586;SDS011;28216;53.362;-6.288;2022-10-16T02:05:26;4.90;;;0.85;;
42586;SDS011;28216;53.362;-6.288;2022-10-16T02:07:56;3.03;;;1.08;;
42586;SDS011;28216;53.362;-6.288;2022-10-16T02:10:22;5.13;;;1.27;;
42586;SDS011;28216;53.362;-6.288;2022-10-16T02:13:05;3.83;;;0.93;;
42586;SDS011;28216;53.362;-6.288;2022-10-16T02:15:34;5.25;;;1.15;;
42586;SDS011;28216;53.362;-6.288;2022-10-16T02:18:01;3.28;;;1.10;;
42586;SDS011;28216;53.362;-6.288;2022-10-16T02:20:28;6.80;;;1.10;;
42586;SDS011;28216;53.362;-6.288;2022-10-16T02:22:57;4.72;;;1.20;;
42586;SDS011;28216;53.362;-6.288;2022-10-16T02:27:55;4.57;;;1.08;;
42586;SDS011;28216;53.362;-6.288;2022-10-16T02:30:34;5.15;;;1.15;;
42586;SDS011;28216;53.362;-6.288;2022-10-16T02:33:06;4.00;;;1.25;;
42586;SDS011;28216;53.362;-6.288;2022-10-16T02:35:34;4.45;;;1.15;;
42586;SDS011;28216;53.362;-6.288;2022-10-16T02:38:01;5.07;;;1.23;;
42586;SDS011;28216;53.362;-6.288;2022-10-16T02:40:27;6.95;;;1.10;;
42586;SDS011;28216;53.362;-6.288;2022-10-16T02:42:53;3.45;;;0.90;;
42586;SDS011;28216;53.362;-6.288;2022-10-16T02:45:22;7.82;;;1.17;;
42586;SDS011;28216;53.362;-6.288;2022-10-16T02:47:48;3.47;;;1.38;;
42586;SDS011;28216;53.362;-6.288;2022-10-16T02:50:13;5.70;;;1.10;;
42586;SDS011;28216;53.362;-6.288;2022-10-16T02:52:39;3.88;;;1.15;;
42586;SDS011;28216;53.362;-6.288;2022-10-16T02:55:05;3.28;;;1.10;;
42586;SDS011;28216;53.362;-6.288;2022-10-16T02:57:30;5.90;;;1.00;;
42586;SDS011;28216;53.362;-6.288;2022-10-16T02:59:56;4.95;;;1.00;;
42586;SDS011;28216;53.362;-6.288;2022-10-16T03:02:22;2.95;;;0.80;;
42586;SDS011;28216;53.362;-6.288;2022-10-16T03:04:50;7.80;;;1.13;;
42586;SDS011;28216;53.362;-6.288;2022-10-16T03:07:16;5.30;;;1.20;;
42586;SDS011;28216;53.362;-6.288;2022-10-16T03:09:41;5.07;;;1.10;;
42586;SDS011;28216;53.362;-6.288;2022-10-16T03:12:07;5.32;;;1.05;;
42586;SDS011;28216;53.362;-6.288;2022-10-16T03:14:39;2.28;;;0.90;;
42586;SDS011;28216;53.362;-6.288;2022-10-16T03:17:05;3.13;;;0.82;;
42586;SDS011;28216;53.362;-6.288;2022-10-16T03:19:33;4.45;;;1.23;;
42586;SDS011;28216;53.362;-6.288;2022-10-16T03:22:00;2.97;;;0.65;;
42586;SDS011;28216;53.362;-6.288;2022-10-16T03:24:26;1.60;;;0.75;;
42586;SDS011;28216;53.362;-6.288;2022-10-16T03:26:52;4.80;;;0.90;;
42586;SDS011;28216;53.362;-6.288;2022-10-16T03:29:17;2.90;;;0.88;;
42586;SDS011;28216;53.362;-6.288;2022-10-16T03:31:43;1.20;;;0.70;;
42586;SDS011;28216;53.362;-6.288;2022-10-16T03:34:08;2.22;;;0.52;;
42586;SDS011;28216;53.362;-6.288;2022-10-16T03:36:34;4.35;;;0.90;;
42586;SDS011;28216;53.362;-6.288;2022-10-16T03:38:59;2.67;;;0.50;;
42586;SDS011;28216;53.362;-6.288;2022-10-16T03:41:25;3.85;;;0.80;;
42586;SDS011;28216;53.362;-6.288;2022-10-16T03:43:50;2.67;;;0.90;;
42586;SDS011;28216;53.362;-6.288;2022-10-16T03:46:16;2.83;;;0.70;;
42586;SDS011;28216;53.362;-6.288;2022-10-16T03:48:41;4.43;;;0.77;;
42586;SDS011;28216;53.362;-6.288;2022-10-16T03:51:06;2.25;;;0.77;;
42586;SDS011;28216;53.362;-6.288;2022-10-16T03:53:32;2.95;;;1.00;;
42586;SDS011;28216;53.362;-6.288;2022-10-16T03:55:57;2.85;;;0.90;;
42586;SDS011;28216;53.362;-6.288;2022-10-16T03:58:23;1.60;;;0.85;;
42586;SDS011;28216;53.362;-6.288;2022-10-16T04:00:49;2.72;;;0.73;;
42586;SDS011;28216;53.362;-6.288;2022-10-16T04:03:14;4.32;;;0.80;;
42586;SDS011;28216;53.362;-6.288;2022-10-16T04:05:40;4.60;;;0.82;;
42586;SDS011;28216;53.362;-6.288;2022-10-16T04:08:06;2.83;;;0.65;;
42586;SDS011;28216;53.362;-6.288;2022-10-16T04:10:32;3.50;;;0.75;;
42586;SDS011;28216;53.362;-6.288;2022-10-16T04:12:57;2.80;;;0.90;;
42586;SDS011;28216;53.362;-6.288;2022-10-16T04:15:23;4.07;;;0.75;;
42586;SDS011;28216;53.362;-6.288;2022-10-16T04:17:51;4.45;;;0.70;;
42586;SDS011;28216;53.362;-6.288;2022-10-16T04:20:17;2.45;;;0.80;;
42586;SDS011;28216;53.362;-6.288;2022-10-16T04:22:43;2.83;;;0.80;;
42586;SDS011;28216;53.362;-6.288;2022-10-16T04:25:09;6.03;;;0.85;;
42586;SDS011;28216;53.362;-6.288;2022-10-16T04:27:36;2.53;;;0.80;;
42586;SDS011;28216;53.362;-6.288;2022-10-16T04:30:01;3.22;;;0.63;;
42586;SDS011;28216;53.362;-6.288;2022-10-16T04:32:27;1.50;;;0.73;;
42586;SDS011;28216;53.362;-6.288;2022-10-16T04:34:53;2.85;;;0.60;;
42586;SDS011;28216;53.362;-6.288;2022-10-16T04:37:18;2.58;;;0.57;;
42586;SDS011;28216;53.362;-6.288;2022-10-16T04:39:48;4.30;;;0.95;;
42586;SDS011;28216;53.362;-6.288;2022-10-16T04:42:13;5.25;;;0.85;;
42586;SDS011;28216;53.362;-6.288;2022-10-16T04:44:38;4.53;;;1.05;;
42586;SDS011;28216;53.362;-6.288;2022-10-16T04:47:04;3.72;;;0.80;;
42586;SDS011;28216;53.362;-6.288;2022-10-16T04:49:29;3.28;;;0.80;;
42586;SDS011;28216;53.362;-6.288;2022-10-16T04:51:55;4.55;;;0.80;;
42586;SDS011;28216;53.362;-6.288;2022-10-16T04:54:20;5.45;;;1.33;;
42586;SDS011;28216;53.362;-6.288;2022-10-16T04:56:46;4.50;;;1.60;;
42586;SDS011;28216;53.362;-6.288;2022-10-16T04:59:13;3.88;;;0.90;;
42586;SDS011;28216;53.362;-6.288;2022-10-16T05:01:39;9.20;;;1.10;;
42586;SDS011;28216;53.362;-6.288;2022-10-16T05:04:05;3.65;;;0.90;;
42586;SDS011;28216;53.362;-6.288;2022-10-16T05:06:31;2.00;;;0.60;;
42586;SDS011;28216;53.362;-6.288;2022-10-16T05:08:56;4.07;;;0.93;;
42586;SDS011;28216;53.362;-6.288;2022-10-16T05:11:22;3.88;;;0.70;;
42586;SDS011;28216;53.362;-6.288;2022-10-16T05:13:47;2.72;;;0.80;;
42586;SDS011;28216;53.362;-6.288;2022-10-16T05:16:13;4.65;;;1.13;;
42586;SDS011;28216;53.362;-6.288;2022-10-16T05:18:38;4.07;;;0.93;;
42586;SDS011;28216;53.362;-6.288;2022-10-16T05:21:04;4.65;;;0.80;;
42586;SDS011;28216;53.362;-6.288;2022-10-16T05:23:30;6.30;;;0.93;;
42586;SDS011;28216;53.362;-6.288;2022-10-16T05:25:56;4.00;;;0.65;;
42586;SDS011;28216;53.362;-6.288;2022-10-16T05:28:27;2.03;;;0.75;;
42586;SDS011;28216;53.362;-6.288;2022-10-16T05:30:53;4.18;;;0.75;;
42586;SDS011;28216;53.362;-6.288;2022-10-16T05:33:20;4.53;;;0.73;;
42586;SDS011;28216;53.362;-6.288;2022-10-16T05:35:46;4.43;;;0.80;;
42586;SDS011;28216;53.362;-6.288;2022-10-16T05:38:11;4.28;;;0.80;;
42586;SDS011;28216;53.362;-6.288;2022-10-16T05:40:37;4.32;;;0.95;;
42586;SDS011;28216;53.362;-6.288;2022-10-16T05:43:02;1.70;;;0.70;;
42586;SDS011;28216;53.362;-6.288;2022-10-16T05:45:28;4.03;;;0.95;;
42586;SDS011;28216;53.362;-6.288;2022-10-16T05:47:54;3.47;;;1.00;;
42586;SDS011;28216;53.362;-6.288;2022-10-16T05:50:19;2.80;;;0.80;;
42586;SDS011;28216;53.362;-6.288;2022-10-16T05:52:45;5.07;;;0.80;;
42586;SDS011;28216;53.362;-6.288;2022-10-16T05:55:10;5.53;;;0.93;;
42586;SDS011;28216;53.362;-6.288;2022-10-16T05:57:36;5.70;;;0.80;;
42586;SDS011;28216;53.362;-6.288;2022-10-16T06:00:01;4.68;;;0.73;;
42586;SDS011;28216;53.362;-6.288;2022-10-16T06:02:27;2.80;;;1.00;;
42586;SDS011;28216;53.362;-6.288;2022-10-16T06:04:53;3.95;;;1.10;;
42586;SDS011;28216;53.362;-6.288;2022-10-16T06:07:18;5.00;;;1.02;;
42586;SDS011;28216;53.362;-6.288;2022-10-16T06:09:47;5.80;;;0.90;;
42586;SDS011;28216;53.362;-6.288;2022-10-16T06:12:13;8.82;;;1.30;;
42586;SDS011;28216;53.362;-6.288;2022-10-16T06:14:39;3.72;;;0.75;;
42586;SDS011;28216;53.362;-6.288;2022-10-16T06:17:04;3.65;;;0.75;;
42586;SDS011;28216;53.362;-6.288;2022-10-16T06:19:30;3.42;;;0.80;;
42586;SDS011;28216;53.362;-6.288;2022-10-16T06:21:56;4.07;;;0.75;;
42586;SDS011;28216;53.362;-6.288;2022-10-16T06:24:23;3.67;;;0.90;;
42586;SDS011;28216;53.362;-6.288;2022-10-16T06:26:48;7.47;;;1.00;;
42586;SDS011;28216;53.362;-6.288;2022-10-16T06:29:14;4.47;;;0.95;;
42586;SDS011;28216;53.362;-6.288;2022-10-16T06:31:39;6.93;;;1.10;;
42586;SDS011;28216;53.362;-6.288;2022-10-16T06:34:04;7.18;;;1.33;;
42586;SDS011;28216;53.362;-6.288;2022-10-16T06:36:34;9.02;;;1.50;;
42586;SDS011;28216;53.362;-6.288;2022-10-16T06:38:59;6.28;;;1.30;;
42586;SDS011;28216;53.362;-6.288;2022-10-16T06:41:25;3.10;;;0.85;;
42586;SDS011;28216;53.362;-6.288;2022-10-16T06:43:50;7.18;;;1.60;;
42586;SDS011;28216;53.362;-6.288;2022-10-16T06:46:18;3.75;;;1.10;;
42586;SDS011;28216;53.362;-6.288;2022-10-16T06:48:45;8.02;;;1.10;;
42586;SDS011;28216;53.362;-6.288;2022-10-16T06:51:11;3.95;;;1.02;;
42586;SDS011;28216;53.362;-6.288;2022-10-16T06:53:43;2.20;;;0.88;;
42586;SDS011;28216;53.362;-6.288;2022-10-16T06:56:12;5.85;;;1.00;;
42586;SDS011;28216;53.362;-6.288;2022-10-16T06:58:39;5.68;;;1.17;;
42586;SDS011;28216;53.362;-6.288;2022-10-16T07:01:05;5.75;;;1.10;;
42586;SDS011;28216;53.362;-6.288;2022-10-16T07:03:31;5.82;;;1.45;;
42586;SDS011;28216;53.362;-6.288;2022-10-16T07:06:00;8.07;;;1.60;;
42586;SDS011;28216;53.362;-6.288;2022-10-16T07:08:27;4.40;;;1.05;;
42586;SDS011;28216;53.362;-6.288;2022-10-16T07:11:02;4.13;;;0.90;;
42586;SDS011;28216;53.362;-6.288;2022-10-16T07:13:33;7.05;;;1.08;;
42586;SDS011;28216;53.362;-6.288;2022-10-16T07:16:16;4.82;;;1.02;;
42586;SDS011;28216;53.362;-6.288;2022-10-16T07:18:43;5.63;;;1.27;;
42586;SDS011;28216;53.362;-6.288;2022-10-16T07:21:12;5.28;;;1.20;;
42586;SDS011;28216;53.362;-6.288;2022-10-16T07:23:40;8.23;;;1.58;;
42586;SDS011;28216;53.362;-6.288;2022-10-16T07:26:06;6.07;;;1.52;;
42586;SDS011;28216;53.362;-6.288;2022-10-16T07:28:32;5.30;;;1.40;;
42586;SDS011;28216;53.362;-6.288;2022-10-16T07:31:02;4.55;;;1.15;;
42586;SDS011;28216;53.362;-6.288;2022-10-16T07:33:29;4.05;;;1.30;;
42586;SDS011;28216;53.362;-6.288;2022-10-16T07:35:55;4.13;;;1.20;;
42586;SDS011;28216;53.362;-6.288;2022-10-16T07:38:21;5.78;;;1.20;;
42586;SDS011;28216;53.362;-6.288;2022-10-16T07:40:47;4.85;;;1.50;;
42586;SDS011;28216;53.362;-6.288;2022-10-16T07:43:12;4.90;;;1.50;;
42586;SDS011;28216;53.362;-6.288;2022-10-16T07:45:48;5.22;;;1.33;;
42586;SDS011;28216;53.362;-6.288;2022-10-16T07:48:15;3.63;;;1.35;;
42586;SDS011;28216;53.362;-6.288;2022-10-16T07:50:42;4.90;;;1.48;;
42586;SDS011;28216;53.362;-6.288;2022-10-16T07:53:08;4.40;;;1.30;;
42586;SDS011;28216;53.362;-6.288;2022-10-16T07:55:34;7.10;;;1.40;;
42586;SDS011;28216;53.362;-6.288;2022-10-16T07:57:59;7.55;;;1.52;;
42586;SDS011;28216;53.362;-6.288;2022-10-16T08:00:24;3.75;;;1.38;;
42586;SDS011;28216;53.362;-6.288;2022-10-16T08:02:50;6.78;;;1.50;;
42586;SDS011;28216;53.362;-6.288;2022-10-16T08:05:15;4.88;;;1.15;;
42586;SDS011;28216;53.362;-6.288;2022-10-16T08:07:41;7.63;;;1.30;;
42586;SDS011;28216;53.362;-6.288;2022-10-16T08:10:06;4.43;;;1.27;;
42586;SDS011;28216;53.362;-6.288;2022-10-16T08:12:37;6.05;;;1.50;;
42586;SDS011;28216;53.362;-6.288;2022-10-16T08:15:02;7.75;;;2.00;;
42586;SDS011;28216;53.362;-6.288;2022-10-16T08:17:28;5.05;;;1.30;;
42586;SDS011;28216;53.362;-6.288;2022-10-16T08:19:53;5.05;;;1.20;;
42586;SDS011;28216;53.362;-6.288;2022-10-16T08:22:19;4.50;;;1.33;;
42586;SDS011;28216;53.362;-6.288;2022-10-16T08:24:44;6.72;;;1.30;;
42586;SDS011;28216;53.362;-6.288;2022-10-16T08:27:10;6.15;;;1.15;;
42586;SDS011;28216;53.362;-6.288;2022-10-16T08:29:35;6.75;;;1.42;;
42586;SDS011;28216;53.362;-6.288;2022-10-16T08:32:00;4.55;;;1.15;;
42586;SDS011;28216;53.362;-6.288;2022-10-16T08:34:26;4.30;;;1.42;;
42586;SDS011;28216;53.362;-6.288;2022-10-16T08:36:54;6.60;;;1.40;;
42586;SDS011;28216;53.362;-6.288;2022-10-16T08:39:20;4.03;;;1.50;;
42586;SDS011;28216;53.362;-6.288;2022-10-16T08:50:30;6.20;;;1.80;;
42586;SDS011;28216;53.362;-6.288;2022-10-16T08:52:41;8.20;;;2.05;;
42586;SDS011;28216;53.362;-6.288;2022-10-16T08:58:11;7.70;;;1.95;;
42586;SDS011;28216;53.362;-6.288;2022-10-16T09:00:39;7.18;;;1.70;;
42586;SDS011;28216;53.362;-6.288;2022-10-16T09:05:57;7.05;;;1.80;;
42586;SDS011;28216;53.362;-6.288;2022-10-16T09:08:29;7.93;;;1.92;;
42586;SDS011;28216;53.362;-6.288;2022-10-16T09:14:01;7.85;;;2.08;;
42586;SDS011;28216;53.362;-6.288;2022-10-16T09:16:46;9.73;;;3.03;;
42586;SDS011;28216;53.362;-6.288;2022-10-16T09:19:37;10.13;;;2.50;;
42586;SDS011;28216;53.362;-6.288;2022-10-16T09:22:11;7.85;;;2.40;;
42586;SDS011;28216;53.362;-6.288;2022-10-16T09:24:39;12.55;;;2.20;;
42586;SDS011;28216;53.362;-6.288;2022-10-16T09:27:07;8.50;;;2.25;;
42586;SDS011;28216;53.362;-6.288;2022-10-16T09:29:36;7.70;;;2.00;;
42586;SDS011;28216;53.362;-6.288;2022-10-16T09:32:07;9.50;;;1.90;;
42586;SDS011;28216;53.362;-6.288;2022-10-16T09:34:38;9.85;;;2.33;;
42586;SDS011;28216;53.362;-6.288;2022-10-16T09:37:12;9.20;;;2.97;;
42586;SDS011;28216;53.362;-6.288;2022-10-16T09:39:45;11.73;;;3.50;;
42586;SDS011;28216;53.362;-6.288;2022-10-16T09:42:16;6.40;;;2.45;;
42586;SDS011;28216;53.362;-6.288;2022-10-16T09:44:47;7.55;;;2.00;;
42586;SDS011;28216;53.362;-6.288;2022-10-16T09:47:16;5.47;;;1.80;;
42586;SDS011;28216;53.362;-6.288;2022-10-16T09:49:58;6.38;;;1.73;;
42586;SDS011;28216;53.362;-6.288;2022-10-16T09:52:44;9.60;;;3.40;;
42586;SDS011;28216;53.362;-6.288;2022-10-16T09:55:14;7.65;;;3.15;;
42586;SDS011;28216;53.362;-6.288;2022-10-16T09:57:54;6.60;;;2.20;;
42586;SDS011;28216;53.362;-6.288;2022-10-16T10:00:21;8.77;;;1.92;;
42586;SDS011;28216;53.362;-6.288;2022-10-16T10:02:48;9.02;;;2.10;;
42586;SDS011;28216;53.362;-6.288;2022-10-16T10:05:18;7.50;;;1.90;;
42586;SDS011;28216;53.362;-6.288;2022-10-16T10:07:52;5.55;;;2.20;;
42586;SDS011;28216;53.362;-6.288;2022-10-16T10:10:21;7.72;;;2.08;;
42586;SDS011;28216;53.362;-6.288;2022-10-16T10:12:56;9.07;;;2.35;;
42586;SDS011;28216;53.362;-6.288;2022-10-16T10:15:23;10.63;;;2.13;;
42586;SDS011;28216;53.362;-6.288;2022-10-16T10:17:56;4.38;;;1.60;;
42586;SDS011;28216;53.362;-6.288;2022-10-16T10:20:24;5.97;;;1.85;;
42586;SDS011;28216;53.362;-6.288;2022-10-16T10:23:00;5.38;;;1.60;;
42586;SDS011;28216;53.362;-6.288;2022-10-16T10:33:27;6.03;;;1.80;;
42586;SDS011;28216;53.362;-6.288;2022-10-16T10:41:14;7.45;;;1.58;;
42586;SDS011;28216;53.362;-6.288;2022-10-16T10:55:25;8.70;;;2.22;;
42586;SDS011;28216;53.362;-6.288;2022-10-16T11:06:20;6.75;;;2.00;;
42586;SDS011;28216;53.362;-6.288;2022-10-16T11:11:25;11.45;;;2.22;;
42586;SDS011;28216;53.362;-6.288;2022-10-16T11:14:00;7.75;;;2.03;;
42586;SDS011;28216;53.362;-6.288;2022-10-16T11:16:46;5.50;;;1.80;;
42586;SDS011;28216;53.362;-6.288;2022-10-16T11:27:24;4.40;;;1.60;;
42586;SDS011;28216;53.362;-6.288;2022-10-16T11:30:02;6.03;;;1.75;;
42586;SDS011;28216;53.362;-6.288;2022-10-16T11:32:32;5.50;;;1.50;;
42586;SDS011;28216;53.362;-6.288;2022-10-16T11:35:22;6.22;;;1.80;;
42586;SDS011;28216;53.362;-6.288;2022-10-16T11:37:55;17.55;;;5.80;;
42586;SDS011;28216;53.362;-6.288;2022-10-16T11:40:25;17.73;;;5.53;;
42586;SDS011;28216;53.362;-6.288;2022-10-16T11:43:04;17.05;;;5.32;;
42586;SDS011;28216;53.362;-6.288;2022-10-16T11:45:41;17.02;;;6.10;;
42586;SDS011;28216;53.362;-6.288;2022-10-16T11:50:48;12.60;;;4.00;;
42586;SDS011;28216;53.362;-6.288;2022-10-16T11:55:48;13.85;;;5.55;;
42586;SDS011;28216;53.362;-6.288;2022-10-16T12:06:22;8.10;;;2.80;;
42586;SDS011;28216;53.362;-6.288;2022-10-16T12:08:49;4.40;;;1.90;;
42586;SDS011;28216;53.362;-6.288;2022-10-16T12:14:07;6.53;;;2.00;;
42586;SDS011;28216;53.362;-6.288;2022-10-16T12:19:17;6.68;;;1.67;;
42586;SDS011;28216;53.362;-6.288;2022-10-16T12:21:44;6.38;;;1.42;;
42586;SDS011;28216;53.362;-6.288;2022-10-16T12:24:44;4.60;;;1.77;;
42586;SDS011;28216;53.362;-6.288;2022-10-16T12:27:06;8.07;;;1.92;;
42586;SDS011;28216;53.362;-6.288;2022-10-16T12:30:01;6.18;;;1.80;;
42586;SDS011;28216;53.362;-6.288;2022-10-16T12:32:34;12.35;;;3.55;;
42586;SDS011;28216;53.362;-6.288;2022-10-16T12:35:03;6.95;;;2.70;;
42586;SDS011;28216;53.362;-6.288;2022-10-16T12:37:34;9.75;;;2.00;;
42586;SDS011;28216;53.362;-6.288;2022-10-16T12:42:52;9.48;;;2.60;;
42586;SDS011;28216;53.362;-6.288;2022-10-16T12:47:51;7.40;;;2.80;;
42586;SDS011;28216;53.362;-6.288;2022-10-16T12:52:57;9.20;;;2.65;;
42586;SDS011;28216;53.362;-6.288;2022-10-16T12:55:24;9.05;;;2.28;;
42586;SDS011;28216;53.362;-6.288;2022-10-16T13:09:02;5.55;;;2.25;;
42586;SDS011;28216;53.362;-6.288;2022-10-16T13:11:50;8.10;;;3.13;;
42586;SDS011;28216;53.362;-6.288;2022-10-16T13:17:25;7.63;;;3.22;;
42586;SDS011;28216;53.362;-6.288;2022-10-16T13:22:34;6.78;;;3.35;;
42586;SDS011;28216;53.362;-6.288;2022-10-16T13:25:22;10.27;;;3.97;;
42586;SDS011;28216;53.362;-6.288;2022-10-16T13:27:57;11.10;;;3.58;;
42586;SDS011;28216;53.362;-6.288;2022-10-16T13:30:26;8.38;;;2.72;;
42586;SDS011;28216;53.362;-6.288;2022-10-16T13:33:02;7.15;;;2.60;;
42586;SDS011;28216;53.362;-6.288;2022-10-16T13:35:46;5.82;;;1.80;;
42586;SDS011;28216;53.362;-6.288;2022-10-16T13:38:17;7.13;;;1.70;;
42586;SDS011;28216;53.362;-6.288;2022-10-16T13:43:26;6.40;;;1.80;;
42586;SDS011;28216;53.362;-6.288;2022-10-16T13:46:06;7.50;;;1.98;;
42586;SDS011;28216;53.362;-6.288;2022-10-16T13:48:37;3.75;;;1.52;;
42586;SDS011;28216;53.362;-6.288;2022-10-16T13:51:04;5.75;;;1.52;;
42586;SDS011;28216;53.362;-6.288;2022-10-16T13:53:31;7.10;;;2.40;;
42586;SDS011;28216;53.362;-6.288;2022-10-16T13:56:06;8.30;;;2.07;;
42586;SDS011;28216;53.362;-6.288;2022-10-16T13:58:35;8.05;;;1.90;;
42586;SDS011;28216;53.362;-6.288;2022-10-16T14:01:02;5.88;;;1.90;;
42586;SDS011;28216;53.362;-6.288;2022-10-16T14:03:30;6.45;;;2.50;;
42586;SDS011;28216;53.362;-6.288;2022-10-16T14:05:58;7.78;;;2.78;;
42586;SDS011;28216;53.362;-6.288;2022-10-16T14:08:26;10.50;;;2.83;;
42586;SDS011;28216;53.362;-6.288;2022-10-16T14:10:54;6.03;;;2.30;;
42586;SDS011;28216;53.362;-6.288;2022-10-16T14:13:26;7.85;;;2.90;;
42586;SDS011;28216;53.362;-6.288;2022-10-16T14:15:59;6.60;;;3.03;;
42586;SDS011;28216;53.362;-6.288;2022-10-16T14:18:32;9.45;;;3.08;;
42586;SDS011;28216;53.362;-6.288;2022-10-16T14:21:02;8.93;;;2.08;;
42586;SDS011;28216;53.362;-6.288;2022-10-16T14:23:31;6.38;;;1.98;;
42586;SDS011;28216;53.362;-6.288;2022-10-16T14:28:36;5.20;;;2.08;;
42586;SDS011;28216;53.362;-6.288;2022-10-16T14:31:13;11.90;;;2.53;;
42586;SDS011;28216;53.362;-6.288;2022-10-16T14:33:51;4.63;;;2.10;;
42586;SDS011;28216;53.362;-6.288;2022-10-16T14:36:17;6.68;;;3.00;;
42586;SDS011;28216;53.362;-6.288;2022-10-16T14:38:58;11.07;;;4.30;;
42586;SDS011;28216;53.362;-6.288;2022-10-16T14:41:25;15.27;;;6.75;;
42586;SDS011;28216;53.362;-6.288;2022-10-16T14:43:52;8.93;;;3.80;;
42586;SDS011;28216;53.362;-6.288;2022-10-16T14:46:20;10.13;;;2.70;;
42586;SDS011;28216;53.362;-6.288;2022-10-16T14:48:59;9.68;;;3.22;;
42586;SDS011;28216;53.362;-6.288;2022-10-16T14:54:16;17.48;;;5.40;;
42586;SDS011;28216;53.362;-6.288;2022-10-16T14:56:47;11.18;;;4.22;;
42586;SDS011;28216;53.362;-6.288;2022-10-16T14:59:37;7.28;;;2.88;;
42586;SDS011;28216;53.362;-6.288;2022-10-16T15:02:16;11.75;;;2.60;;
42586;SDS011;28216;53.362;-6.288;2022-10-16T15:04:54;5.97;;;2.22;;
42586;SDS011;28216;53.362;-6.288;2022-10-16T15:07:21;8.95;;;2.50;;
42586;SDS011;28216;53.362;-6.288;2022-10-16T15:09:46;5.18;;;2.08;;
42586;SDS011;28216;53.362;-6.288;2022-10-16T15:12:12;7.05;;;2.17;;
42586;SDS011;28216;53.362;-6.288;2022-10-16T15:14:38;8.30;;;2.10;;
42586;SDS011;28216;53.362;-6.288;2022-10-16T15:17:03;7.28;;;1.80;;
42586;SDS011;28216;53.362;-6.288;2022-10-16T15:19:33;8.65;;;1.90;;
42586;SDS011;28216;53.362;-6.288;2022-10-16T15:22:02;8.40;;;2.22;;
42586;SDS011;28216;53.362;-6.288;2022-10-16T15:24:30;9.68;;;1.95;;
42586;SDS011;28216;53.362;-6.288;2022-10-16T15:26:56;9.30;;;2.25;;
42586;SDS011;28216;53.362;-6.288;2022-10-16T15:29:24;9.43;;;2.13;;
42586;SDS011;28216;53.362;-6.288;2022-10-16T15:31:49;9.52;;;2.03;;
42586;SDS011;28216;53.362;-6.288;2022-10-16T15:34:15;8.40;;;2.22;;
42586;SDS011;28216;53.362;-6.288;2022-10-16T15:36:43;13.63;;;3.25;;
42586;SDS011;28216;53.362;-6.288;2022-10-16T15:39:12;10.25;;;2.90;;
42586;SDS011;28216;53.362;-6.288;2022-10-16T15:41:41;8.05;;;2.22;;
42586;SDS011;28216;53.362;-6.288;2022-10-16T15:44:15;11.15;;;3.28;;
42586;SDS011;28216;53.362;-6.288;2022-10-16T15:46:44;7.03;;;2.08;;
42586;SDS011;28216;53.362;-6.288;2022-10-16T15:49:10;5.53;;;1.88;;
42586;SDS011;28216;53.362;-6.288;2022-10-16T15:51:39;7.82;;;2.08;;
42586;SDS011;28216;53.362;-6.288;2022-10-16T15:54:13;6.18;;;2.97;;
42586;SDS011;28216;53.362;-6.288;2022-10-16T15:56:39;9.82;;;2.40;;
42586;SDS011;28216;53.362;-6.288;2022-10-16T15:59:07;12.18;;;2.53;;
42586;SDS011;28216;53.362;-6.288;2022-10-16T16:01:33;11.23;;;2.35;;
42586;SDS011;28216;53.362;-6.288;2022-10-16T16:03:59;13.93;;;2.30;;
42586;SDS011;28216;53.362;-6.288;2022-10-16T16:06:35;10.35;;;1.92;;
42586;SDS011;28216;53.362;-6.288;2022-10-16T16:09:02;13.60;;;2.40;;
42586;SDS011;28216;53.362;-6.288;2022-10-16T16:11:27;12.27;;;2.00;;
42586;SDS011;28216;53.362;-6.288;2022-10-16T16:13:53;11.93;;;2.33;;
42586;SDS011;28216;53.362;-6.288;2022-10-16T16:16:20;10.77;;;2.15;;
42586;SDS011;28216;53.362;-6.288;2022-10-16T16:18:45;11.82;;;1.80;;
42586;SDS011;28216;53.362;-6.288;2022-10-16T16:21:11;15.98;;;2.80;;
42586;SDS011;28216;53.362;-6.288;2022-10-16T16:23:37;10.07;;;2.80;;
42586;SDS011;28216;53.362;-6.288;2022-10-16T16:26:08;14.35;;;3.50;;
42586;SDS011;28216;53.362;-6.288;2022-10-16T16:28:39;14.25;;;3.22;;
42586;SDS011;28216;53.362;-6.288;2022-10-16T16:31:06;15.32;;;2.83;;
42586;SDS011;28216;53.362;-6.288;2022-10-16T16:33:33;8.95;;;2.35;;
42586;SDS011;28216;53.362;-6.288;2022-10-16T16:35:59;15.15;;;3.03;;
42586;SDS011;28216;53.362;-6.288;2022-10-16T16:38:27;12.10;;;2.70;;
42586;SDS011;28216;53.362;-6.288;2022-10-16T16:40:53;13.80;;;2.85;;
42586;SDS011;28216;53.362;-6.288;2022-10-16T16:43:22;12.82;;;3.85;;
42586;SDS011;28216;53.362;-6.288;2022-10-16T16:45:48;18.08;;;3.63;;